createdAt,value
2022-08-25T00:01:37.685Z,17.05
2022-08-25T00:04:41.796Z,16.30
2022-08-25T00:07:46.108Z,15.73
2022-08-25T00:10:53.985Z,19.42
2022-08-25T00:14:12.037Z,18.60
2022-08-25T00:17:14.923Z,25.15
2022-08-25T00:20:17.817Z,28.50
2022-08-25T00:23:20.942Z,33.53
2022-08-25T00:26:23.481Z,33.80
2022-08-25T00:29:26.609Z,33.35
2022-08-25T00:32:29.111Z,42.17
2022-08-25T00:35:31.876Z,36.13
2022-08-25T00:38:34.378Z,34.58
2022-08-25T00:41:39.035Z,39.22
2022-08-25T00:44:43.961Z,37.95
2022-08-25T00:47:47.297Z,40.50
2022-08-25T00:50:49.817Z,40.47
2022-08-25T00:53:52.563Z,33.88
2022-08-25T00:56:56.726Z,36.03
2022-08-25T01:00:00.393Z,36.90
2022-08-25T01:03:03.051Z,46.67
2022-08-25T01:06:06.188Z,39.60
2022-08-25T01:09:08.739Z,35.55
2022-08-25T01:12:11.523Z,34.20
2022-08-25T01:15:15.118Z,40.85
2022-08-25T01:18:18.643Z,36.83
2022-08-25T01:21:23.267Z,39.67
2022-08-25T01:24:41.196Z,37.30
2022-08-25T01:27:43.671Z,43.08
2022-08-25T01:30:46.755Z,35.05
2022-08-25T01:33:49.234Z,39.42
2022-08-25T01:36:52.280Z,41.80
2022-08-25T01:39:54.837Z,39.88
2022-08-25T01:43:08.459Z,45.42
2022-08-25T01:46:11.261Z,34.75
2022-08-25T01:49:14.630Z,45.10
2022-08-25T01:52:26.010Z,39.73
2022-08-25T01:55:29.146Z,41.50
2022-08-25T01:58:35.573Z,37.47
2022-08-25T02:01:38.422Z,37.10
2022-08-25T02:04:44.379Z,39.30
2022-08-25T02:07:47.170Z,43.47
2022-08-25T02:10:51.431Z,41.17
2022-08-25T02:13:54.368Z,34.97
2022-08-25T02:16:57.478Z,39.55
2022-08-25T02:20:00.247Z,40.88
2022-08-25T02:23:03.062Z,41.83
2022-08-25T02:26:05.614Z,40.55
2022-08-25T02:29:08.667Z,39.58
2022-08-25T02:32:11.167Z,38.47
2022-08-25T02:35:13.961Z,38.10
2022-08-25T02:38:16.628Z,39.10
2022-08-25T02:41:23.084Z,28.85
2022-08-25T02:44:33.986Z,26.70
2022-08-25T02:47:37.319Z,32.55
2022-08-25T02:50:40.473Z,32.72
2022-08-25T02:53:46.089Z,31.80
2022-08-25T02:56:48.842Z,29.50
2022-08-25T02:59:51.796Z,34.05
2022-08-25T03:02:54.287Z,35.88
2022-08-25T03:05:57.780Z,32.60
2022-08-25T03:09:01.515Z,33.43
2022-08-25T03:12:04.619Z,30.60
2022-08-25T03:15:12.916Z,30.15
2022-08-25T03:18:16.182Z,29.00
2022-08-25T03:21:19.704Z,31.83
2022-08-25T03:24:23.954Z,27.97
2022-08-25T03:27:27.028Z,30.65
2022-08-25T03:30:30.128Z,28.33
2022-08-25T03:33:32.581Z,35.33
2022-08-25T03:36:35.412Z,29.80
2022-08-25T03:39:37.898Z,30.77
2022-08-25T03:42:44.858Z,28.23
2022-08-25T03:45:48.181Z,26.58
2022-08-25T03:48:52.010Z,26.70
2022-08-25T03:51:55.080Z,30.37
2022-08-25T03:54:58.461Z,23.50
2022-08-25T03:58:00.916Z,23.35
2022-08-25T04:01:03.717Z,28.45
2022-08-25T04:04:07.792Z,29.00
2022-08-25T04:07:10.311Z,25.95
2022-08-25T04:10:13.207Z,29.47
2022-08-25T04:13:15.666Z,25.80
2022-08-25T04:16:21.254Z,26.92
2022-08-25T04:19:23.964Z,29.63
2022-08-25T04:22:26.937Z,25.55
2022-08-25T04:25:32.400Z,24.10
2022-08-25T04:28:35.520Z,24.00
2022-08-25T04:31:40.393Z,27.05
2022-08-25T04:34:43.566Z,24.83
2022-08-25T04:37:48.190Z,24.52
2022-08-25T04:41:02.216Z,26.87
2022-08-25T04:44:04.875Z,24.10
2022-08-25T04:47:07.647Z,21.50
2022-08-25T04:50:10.811Z,25.05
2022-08-25T04:53:13.900Z,24.40
2022-08-25T04:56:18.362Z,19.83
2022-08-25T04:59:21.219Z,21.02
2022-08-25T05:02:25.389Z,17.67
2022-08-25T05:05:31.180Z,21.65
2022-08-25T05:08:38.348Z,24.33
2022-08-25T05:11:41.142Z,21.23
2022-08-25T05:14:43.619Z,21.25
2022-08-25T05:17:46.368Z,16.12
2022-08-25T05:20:49.436Z,23.35
2022-08-25T05:23:57.484Z,19.25
2022-08-25T05:26:59.989Z,18.47
2022-08-25T05:30:02.900Z,21.17
2022-08-25T05:33:05.437Z,18.55
2022-08-25T05:36:10.266Z,15.15
2022-08-25T05:39:12.864Z,18.42
2022-08-25T05:42:16.433Z,19.97
2022-08-25T05:45:20.342Z,23.15
2022-08-25T05:48:24.829Z,16.62
2022-08-25T05:51:27.525Z,17.27
2022-08-25T05:54:31.902Z,15.82
2022-08-25T05:57:34.919Z,14.57
2022-08-25T06:00:39.322Z,14.07
2022-08-25T06:03:42.131Z,14.25
2022-08-25T06:06:44.701Z,13.98
2022-08-25T06:09:49.021Z,17.25
2022-08-25T06:12:52.007Z,17.70
2022-08-25T06:16:01.310Z,16.02
2022-08-25T06:19:04.644Z,15.50
2022-08-25T06:22:10.135Z,12.07
2022-08-25T06:25:14.518Z,14.73
2022-08-25T06:28:17.587Z,18.03
2022-08-25T06:31:22.400Z,14.52
2022-08-25T06:34:25.396Z,12.68
2022-08-25T06:37:28.207Z,15.38
2022-08-25T06:40:31.149Z,16.80
2022-08-25T06:43:34.378Z,15.33
2022-08-25T06:46:37.361Z,11.63
2022-08-25T06:49:40.013Z,12.57
2022-08-25T06:52:43.159Z,13.30
2022-08-25T06:55:45.828Z,13.07
2022-08-25T06:58:49.085Z,12.03
2022-08-25T07:01:51.699Z,14.85
2022-08-25T07:04:55.709Z,11.27
2022-08-25T07:07:58.215Z,12.68
2022-08-25T07:11:05.959Z,17.27
2022-08-25T07:14:11.266Z,14.00
2022-08-25T07:17:14.307Z,14.50
2022-08-25T07:20:19.088Z,12.48
2022-08-25T07:23:22.990Z,13.13
2022-08-25T07:26:38.252Z,14.23
2022-08-25T07:29:42.682Z,14.73
2022-08-25T07:32:45.462Z,15.90
2022-08-25T07:35:48.444Z,13.38
2022-08-25T07:38:52.983Z,13.20
2022-08-25T07:41:58.107Z,12.85
2022-08-25T07:45:00.618Z,13.83
2022-08-25T07:48:09.709Z,10.40
2022-08-25T07:51:14.427Z,11.40
2022-08-25T07:54:17.340Z,14.13
2022-08-25T07:57:22.283Z,15.75
2022-08-25T08:00:27.944Z,14.10
2022-08-25T08:03:45.441Z,10.55
2022-08-25T08:06:53.815Z,13.10
2022-08-25T08:10:27.964Z,12.55
2022-08-25T08:13:20.075Z,8.00
2022-08-25T08:16:26.070Z,10.93
2022-08-25T08:19:28.644Z,10.07
2022-08-25T08:22:31.472Z,11.77
2022-08-25T08:25:34.007Z,10.35
2022-08-25T08:28:36.848Z,10.68
2022-08-25T08:31:39.363Z,10.13
2022-08-25T08:34:42.249Z,9.77
2022-08-25T08:37:46.886Z,12.55
2022-08-25T08:41:23.304Z,8.73
2022-08-25T08:44:46.289Z,7.47
2022-08-25T08:48:07.300Z,7.33
2022-08-25T08:51:32.800Z,11.00
2022-08-25T08:54:38.282Z,9.07
2022-08-25T09:00:58.466Z,11.23
2022-08-25T09:04:47.419Z,11.07
2022-08-25T09:08:07.920Z,12.18
2022-08-25T09:11:30.589Z,7.78
2022-08-25T09:14:45.034Z,8.10
2022-08-25T09:18:07.037Z,8.45
2022-08-25T09:21:35.806Z,7.50
2022-08-25T09:25:02.523Z,9.70
2022-08-25T09:28:30.482Z,6.93
2022-08-25T09:31:38.928Z,7.68
2022-08-25T09:34:41.750Z,6.75
2022-08-25T09:37:58.923Z,8.57
2022-08-25T09:41:03.651Z,7.70
2022-08-25T09:44:17.256Z,7.37
2022-08-25T09:47:25.031Z,9.45
2022-08-25T09:50:31.062Z,11.20
2022-08-25T09:53:46.026Z,8.70
2022-08-25T09:57:01.905Z,6.87
2022-08-25T10:00:19.267Z,8.20
2022-08-25T10:03:25.073Z,6.85
2022-08-25T10:06:31.270Z,11.40
2022-08-25T10:09:41.877Z,4.63
2022-08-25T10:12:51.155Z,7.30
2022-08-25T10:16:20.579Z,5.95
2022-08-25T10:19:29.259Z,7.50
2022-08-25T10:22:34.404Z,10.68
2022-08-25T10:25:42.887Z,7.10
2022-08-25T10:29:12.149Z,11.75
2022-08-25T10:32:29.999Z,8.30
2022-08-25T10:35:39.508Z,11.38
2022-08-25T10:38:46.092Z,6.80
2022-08-25T10:42:19.699Z,8.13
2022-08-25T10:45:45.086Z,6.87
2022-08-25T10:48:58.369Z,10.32
2022-08-25T10:52:08.377Z,4.62
2022-08-25T10:55:23.302Z,6.72
2022-08-25T10:58:35.080Z,8.37
2022-08-25T11:01:46.828Z,6.40
2022-08-25T11:05:16.187Z,7.95
2022-08-25T11:08:38.277Z,5.57
2022-08-25T11:11:56.378Z,6.68
2022-08-25T11:15:08.450Z,8.40
2022-08-25T11:18:14.605Z,6.45
2022-08-25T11:21:25.056Z,6.75
2022-08-25T11:25:04.167Z,4.75
2022-08-25T11:28:15.755Z,5.82
2022-08-25T11:31:19.452Z,4.37
2022-08-25T11:34:22.782Z,36.65
2022-08-25T11:37:28.148Z,6.90
2022-08-25T11:40:31.026Z,16.27
2022-08-25T11:43:53.508Z,5.57
2022-08-25T11:47:07.649Z,65.90
2022-08-25T11:50:32.032Z,5.70
2022-08-25T11:53:37.758Z,6.05
2022-08-25T11:56:41.884Z,4.20
2022-08-25T11:59:53.753Z,8.30
2022-08-25T12:03:01.286Z,5.53
2022-08-25T12:06:22.909Z,6.45
2022-08-25T12:09:25.644Z,4.03
2022-08-25T12:12:31.297Z,6.05
2022-08-25T12:15:42.819Z,4.20
2022-08-25T12:18:46.454Z,3.63
2022-08-25T12:21:50.097Z,3.90
2022-08-25T12:25:08.746Z,4.47
2022-08-25T12:28:44.076Z,6.00
2022-08-25T12:32:03.202Z,7.45
2022-08-25T12:35:25.808Z,5.20
2022-08-25T12:38:50.853Z,5.80
2022-08-25T12:42:23.327Z,4.30
2022-08-25T12:45:38.987Z,6.07
2022-08-25T12:48:55.665Z,3.45
2022-08-25T12:52:04.521Z,3.50
2022-08-25T12:55:11.534Z,5.05
2022-08-25T12:58:17.187Z,5.53
2022-08-25T13:01:52.826Z,5.03
2022-08-25T13:05:23.154Z,5.87
2022-08-25T13:08:46.960Z,3.60
2022-08-25T13:12:05.567Z,4.45
2022-08-25T13:15:14.002Z,3.55
2022-08-25T13:18:22.700Z,5.50
2022-08-25T13:21:31.141Z,4.45
2022-08-25T13:24:40.463Z,4.93
2022-08-25T13:27:48.797Z,3.42
2022-08-25T13:31:00.538Z,5.82
2022-08-25T13:34:08.993Z,4.85
2022-08-25T13:37:31.310Z,4.30
2022-08-25T13:40:36.641Z,4.53
2022-08-25T13:43:40.979Z,4.12
2022-08-25T13:46:45.437Z,3.90
2022-08-25T13:49:48.335Z,5.28
2022-08-25T13:52:54.057Z,4.32
2022-08-25T13:56:01.963Z,3.73
2022-08-25T13:59:10.607Z,5.10
2022-08-25T14:02:45.997Z,5.18
2022-08-25T14:06:24.453Z,5.03
2022-08-25T14:09:38.698Z,5.37
2022-08-25T14:12:46.570Z,4.57
2022-08-25T14:15:49.396Z,4.20
2022-08-25T14:18:58.827Z,5.85
2022-08-25T14:22:02.222Z,4.10
2022-08-25T14:25:06.662Z,4.55
2022-08-25T14:28:19.892Z,3.63
2022-08-25T14:31:32.007Z,4.37
2022-08-25T14:34:38.612Z,5.72
2022-08-25T14:37:42.405Z,3.58
2022-08-25T14:40:45.099Z,4.47
2022-08-25T14:43:48.250Z,5.53
2022-08-25T14:46:52.761Z,3.87
2022-08-25T14:49:55.639Z,4.72
2022-08-25T14:52:58.266Z,3.47
2022-08-25T14:56:08.435Z,3.10
2022-08-25T14:59:12.178Z,4.80
2022-08-25T15:02:20.003Z,3.65
2022-08-25T15:05:28.432Z,5.12
2022-08-25T15:08:50.580Z,3.87
2022-08-25T15:11:55.266Z,4.68
2022-08-25T15:14:58.341Z,3.37
2022-08-25T15:18:01.430Z,5.15
2022-08-25T15:21:04.412Z,4.57
2022-08-25T15:24:08.938Z,3.47
2022-08-25T15:27:14.666Z,3.87
2022-08-25T15:30:17.302Z,5.67
2022-08-25T15:33:22.772Z,5.35
2022-08-25T15:36:27.427Z,4.03
2022-08-25T15:39:30.188Z,3.92
2022-08-25T15:42:32.654Z,4.35
2022-08-25T15:45:38.325Z,5.57
2022-08-25T15:48:41.261Z,3.08
2022-08-25T15:51:45.416Z,4.07
2022-08-25T15:54:48.034Z,3.60
2022-08-25T15:57:51.145Z,5.15
2022-08-25T16:00:56.627Z,5.17
2022-08-25T16:03:59.642Z,6.85
2022-08-25T16:07:02.161Z,4.65
2022-08-25T16:10:08.382Z,7.53
2022-08-25T16:13:11.579Z,5.60
2022-08-25T16:16:15.659Z,5.07
2022-08-25T16:19:18.333Z,5.05
2022-08-25T16:22:21.212Z,6.78
2022-08-25T16:25:23.785Z,4.40
2022-08-25T16:28:26.616Z,6.90
2022-08-25T16:31:29.162Z,4.13
2022-08-25T16:34:33.025Z,4.47
2022-08-25T16:37:37.195Z,3.90
2022-08-25T16:40:42.369Z,5.20
2022-08-25T16:43:45.735Z,5.03
2022-08-25T16:46:48.663Z,6.60
2022-08-25T16:49:51.213Z,4.53
2022-08-25T16:53:12.689Z,5.40
2022-08-25T16:56:15.175Z,3.17
2022-08-25T16:59:18.535Z,4.45
2022-08-25T17:02:21.765Z,6.40
2022-08-25T17:05:24.821Z,8.52
2022-08-25T17:08:30.468Z,7.82
2022-08-25T17:11:36.165Z,4.82
2022-08-25T17:14:38.635Z,4.22
2022-08-25T17:17:41.423Z,4.73
2022-08-25T17:20:45.400Z,6.78
2022-08-25T17:23:48.785Z,4.53
2022-08-25T17:26:53.868Z,4.53
2022-08-25T17:29:56.682Z,3.78
2022-08-25T17:33:00.787Z,7.67
2022-08-25T17:36:04.854Z,6.55
2022-08-25T17:39:09.639Z,8.05
2022-08-25T17:42:12.444Z,5.10
2022-08-25T17:45:15.027Z,6.37
2022-08-25T17:48:18.262Z,7.77
2022-08-25T17:51:23.003Z,6.50
2022-08-25T17:54:25.873Z,6.28
2022-08-25T17:57:30.337Z,8.10
2022-08-25T18:00:34.070Z,5.50
2022-08-25T18:03:37.482Z,10.70
2022-08-25T18:06:40.116Z,6.93
2022-08-25T18:09:44.131Z,7.82
2022-08-25T18:12:47.478Z,5.93
2022-08-25T18:15:51.029Z,9.52
2022-08-25T18:18:54.751Z,5.90
2022-08-25T18:21:57.581Z,7.85
2022-08-25T18:25:00.435Z,6.80
2022-08-25T18:28:03.538Z,6.57
2022-08-25T18:31:06.291Z,8.00
2022-08-25T18:34:11.644Z,8.10
2022-08-25T18:37:34.556Z,6.47
2022-08-25T18:40:37.958Z,5.32
2022-08-25T18:43:40.455Z,7.45
2022-08-25T18:46:43.553Z,6.80
2022-08-25T18:49:48.121Z,7.93
2022-08-25T18:52:51.674Z,9.25
2022-08-25T18:55:58.152Z,6.53
2022-08-25T18:59:01.436Z,8.55
2022-08-25T19:02:04.508Z,9.85
2022-08-25T19:05:10.524Z,10.23
2022-08-25T19:08:15.310Z,6.57
2022-08-25T19:11:22.327Z,6.90
2022-08-25T19:14:26.361Z,6.15
2022-08-25T19:17:29.331Z,7.28
2022-08-25T19:20:42.101Z,11.93
2022-08-25T19:23:44.829Z,10.75
2022-08-25T19:26:49.590Z,5.55
2022-08-25T19:29:55.837Z,5.68
2022-08-25T19:32:58.670Z,11.85
2022-08-25T19:36:01.876Z,6.27
2022-08-25T19:39:06.742Z,7.12
2022-08-25T19:42:31.665Z,7.93
2022-08-25T19:45:32.554Z,7.50
2022-08-25T19:48:35.361Z,12.95
2022-08-25T19:51:43.930Z,11.27
2022-08-25T19:54:47.184Z,6.55
2022-08-25T19:57:49.729Z,7.85
2022-08-25T20:00:53.970Z,9.40
2022-08-25T20:03:56.911Z,6.90
2022-08-25T20:06:59.667Z,8.50
2022-08-25T20:10:03.828Z,7.75
2022-08-25T20:13:07.558Z,7.20
2022-08-25T20:16:10.587Z,6.25
2022-08-25T20:19:13.102Z,7.95
2022-08-25T20:22:19.941Z,8.00
2022-08-25T20:25:25.750Z,6.00
2022-08-25T20:28:29.451Z,6.15
2022-08-25T20:31:33.655Z,6.95
2022-08-25T20:34:36.714Z,7.82
2022-08-25T20:37:40.046Z,8.37
2022-08-25T20:40:43.430Z,7.50
2022-08-25T20:43:46.022Z,7.53
2022-08-25T20:46:49.149Z,8.68
2022-08-25T20:49:54.146Z,9.52
2022-08-25T20:52:58.820Z,7.63
2022-08-25T20:56:10.721Z,8.35
2022-08-25T20:59:13.714Z,11.05
2022-08-25T21:02:17.797Z,9.68
2022-08-25T21:05:20.719Z,8.90
2022-08-25T21:08:23.734Z,8.23
2022-08-25T21:11:28.285Z,10.90
2022-08-25T21:14:30.778Z,7.40
2022-08-25T21:17:34.888Z,12.18
2022-08-25T21:20:37.430Z,7.60
2022-08-25T21:23:44.486Z,9.33
2022-08-25T21:26:51.727Z,9.65
2022-08-25T21:29:55.402Z,11.88
2022-08-25T21:32:58.183Z,8.32
2022-08-25T21:36:01.620Z,10.18
2022-08-25T21:39:06.120Z,9.27
2022-08-25T21:45:16.357Z,10.93
2022-08-25T21:48:24.006Z,10.13
2022-08-25T21:51:31.929Z,11.25
2022-08-25T21:54:34.706Z,12.37
2022-08-25T21:57:38.275Z,13.25
2022-08-25T22:00:41.683Z,12.98
2022-08-25T22:03:47.199Z,8.30
2022-08-25T22:06:49.858Z,11.43
2022-08-25T22:09:53.266Z,15.27
2022-08-25T22:12:56.144Z,12.88
2022-08-25T22:15:59.472Z,12.13
2022-08-25T22:19:03.028Z,14.77
2022-08-25T22:22:06.911Z,11.32
2022-08-25T22:25:09.602Z,13.90
2022-08-25T22:28:14.957Z,12.35
2022-08-25T22:31:20.679Z,12.45
2022-08-25T22:34:31.762Z,11.20
2022-08-25T22:37:35.062Z,13.57
2022-08-25T22:40:39.257Z,13.70
2022-08-25T22:43:42.041Z,10.43
2022-08-25T22:46:45.316Z,9.65
2022-08-25T22:49:48.843Z,10.20
2022-08-25T22:52:51.843Z,8.93
2022-08-25T22:55:54.303Z,10.20
2022-08-25T22:59:10.566Z,14.43
2022-08-25T23:02:13.164Z,11.25
2022-08-25T23:05:15.987Z,10.70
2022-08-25T23:08:25.146Z,10.95
2022-08-25T23:11:42.049Z,12.90
2022-08-25T23:14:44.753Z,11.48
2022-08-25T23:17:48.339Z,15.05
2022-08-25T23:21:09.969Z,10.35
2022-08-25T23:24:29.262Z,11.70
2022-08-25T23:27:32.982Z,12.17
2022-08-25T23:30:39.129Z,10.65
2022-08-25T23:33:45.680Z,9.52
2022-08-25T23:36:48.454Z,10.05
2022-08-25T23:39:51.048Z,8.20
2022-08-25T23:42:53.876Z,9.53
2022-08-25T23:45:56.839Z,10.32
2022-08-25T23:48:59.757Z,9.50
2022-08-25T23:52:02.367Z,8.02
2022-08-25T23:55:06.394Z,7.55
2022-08-25T23:58:10.692Z,9.43
